Time;durP1;ratioP1;P1;durP2;ratioP2;P2;SDS_P1;SDS_P2;PMS_P1;PMS_P2;Temp;Humidity;BMP_temperature;BMP_pressure;BME280_temperature;BME280_humidity;BME280_pressure;Samples;Min_cycle;Max_cycle;Signal;HPM_P1;HPM_P2
2020/12/30 00:01:11;;;;;;;24.25;15.43;;;;;;;;;;5056051;28;20040;-79
2020/12/30 00:03:37;;;;;;;24.30;15.40;;;;;;;;;;5060132;28;20049;-79
2020/12/30 00:06:05;;;;;;;19.75;12.82;;;;;;;;;;5060264;28;20043;-79
2020/12/30 00:08:31;;;;;;;17.85;12.02;;;;;;;;;;5060243;28;20399;-79
2020/12/30 00:10:58;;;;;;;19.58;10.98;;;;;;;;;;5060203;28;20036;-79
2020/12/30 00:13:24;;;;;;;23.45;12.25;;;;;;;;;;5059921;28;20078;-79
2020/12/30 00:15:50;;;;;;;20.00;11.57;;;;;;;;;;5058911;28;20371;-79
2020/12/30 00:18:16;;;;;;;23.40;11.10;;;;;;;;;;5059031;28;20403;-79
2020/12/30 00:20:42;;;;;;;19.55;11.10;;;;;;;;;;5059960;28;20025;-78
2020/12/30 00:23:08;;;;;;;18.35;10.85;;;;;;;;;;5060051;28;20179;-79
2020/12/30 00:25:34;;;;;;;20.58;10.13;;;;;;;;;;5059901;28;20029;-78
2020/12/30 00:28:00;;;;;;;15.27;9.18;;;;;;;;;;5059844;28;20020;-79
2020/12/30 00:30:26;;;;;;;17.02;10.10;;;;;;;;;;5059513;28;20319;-78
2020/12/30 00:32:52;;;;;;;20.70;10.85;;;;;;;;;;5059819;28;20106;-78
2020/12/30 00:35:19;;;;;;;17.50;10.02;;;;;;;;;;5058713;28;20414;-78
2020/12/30 00:37:45;;;;;;;16.80;9.10;;;;;;;;;;5059878;28;20029;-78
2020/12/30 00:40:12;;;;;;;17.13;9.20;;;;;;;;;;5059924;28;20029;-78
2020/12/30 00:42:39;;;;;;;21.00;10.23;;;;;;;;;;5059539;28;20032;-78
2020/12/30 00:45:06;;;;;;;14.82;8.30;;;;;;;;;;5059526;28;20349;-79
2020/12/30 00:47:32;;;;;;;16.17;8.63;;;;;;;;;;5058415;28;20065;-79
2020/12/30 00:49:58;;;;;;;20.58;9.98;;;;;;;;;;5058509;28;20025;-78
2020/12/30 00:52:26;;;;;;;19.13;8.77;;;;;;;;;;5058282;28;20025;-78
2020/12/30 00:54:52;;;;;;;19.67;9.95;;;;;;;;;;5059349;28;20450;-78
2020/12/30 00:57:18;;;;;;;16.10;8.13;;;;;;;;;;5058309;28;20096;-78
2020/12/30 00:59:44;;;;;;;18.27;9.23;;;;;;;;;;5059249;28;20024;-78
2020/12/30 01:02:10;;;;;;;19.83;9.57;;;;;;;;;;5058980;28;20362;-78
2020/12/30 01:04:36;;;;;;;19.70;9.60;;;;;;;;;;5058109;28;20044;-79
2020/12/30 01:07:02;;;;;;;18.52;10.30;;;;;;;;;;5059160;28;20419;-79
2020/12/30 01:09:28;;;;;;;16.38;8.32;;;;;;;;;;5059183;28;20036;-79
2020/12/30 01:12:04;;;;;;;17.00;9.68;;;;;;;;;;5058798;28;20025;-79
2020/12/30 01:14:31;;;;;;;17.27;8.10;;;;;;;;;;5057940;28;20339;-79
2020/12/30 01:16:57;;;;;;;15.27;8.32;;;;;;;;;;5059128;28;20095;-79
2020/12/30 01:19:23;;;;;;;16.85;8.93;;;;;;;;;;5058957;28;20410;-79
2020/12/30 01:21:49;;;;;;;18.63;8.73;;;;;;;;;;5058850;28;20029;-79
2020/12/30 01:24:15;;;;;;;16.95;8.02;;;;;;;;;;5057819;28;20049;-79
2020/12/30 01:26:42;;;;;;;13.30;6.85;;;;;;;;;;5058802;28;20021;-79
2020/12/30 01:29:08;;;;;;;18.50;8.07;;;;;;;;;;5057689;28;20029;-79
2020/12/30 01:31:35;;;;;;;16.58;7.57;;;;;;;;;;5058346;28;20025;-79
2020/12/30 01:34:01;;;;;;;15.48;7.60;;;;;;;;;;5058552;28;20135;-79
2020/12/30 01:36:27;;;;;;;11.32;7.32;;;;;;;;;;5058826;28;20075;-78
2020/12/30 01:38:54;;;;;;;16.80;6.88;;;;;;;;;;5058702;28;20044;-78
2020/12/30 01:41:21;;;;;;;12.07;6.63;;;;;;;;;;5058302;28;20059;-79
2020/12/30 01:43:56;;;;;;;9.90;5.95;;;;;;;;;;5058412;28;20029;-79
2020/12/30 01:46:32;;;;;;;13.57;6.00;;;;;;;;;;5058669;28;20068;-79
2020/12/30 01:48:58;;;;;;;8.35;5.28;;;;;;;;;;5057166;28;20033;-79
2020/12/30 01:51:25;;;;;;;10.88;5.82;;;;;;;;;;5058433;28;20025;-80
2020/12/30 01:53:51;;;;;;;7.68;5.95;;;;;;;;;;5058089;28;20128;-79
2020/12/30 01:56:17;;;;;;;10.23;5.72;;;;;;;;;;5058119;28;20017;-79
2020/12/30 01:58:43;;;;;;;8.02;5.55;;;;;;;;;;5058298;28;20025;-79
2020/12/30 02:01:12;;;;;;;10.93;6.15;;;;;;;;;;5057244;28;20032;-79
2020/12/30 02:03:38;;;;;;;9.55;5.93;;;;;;;;;;5057646;28;20059;-79
2020/12/30 02:06:04;;;;;;;10.13;6.30;;;;;;;;;;5057296;28;20072;-79
2020/12/30 02:08:30;;;;;;;9.07;5.75;;;;;;;;;;5058105;28;20025;-79
2020/12/30 02:10:56;;;;;;;10.63;6.15;;;;;;;;;;5056879;28;20079;-79
2020/12/30 02:13:22;;;;;;;12.20;6.40;;;;;;;;;;5057834;28;20040;-79
2020/12/30 02:15:48;;;;;;;10.68;6.57;;;;;;;;;;5057622;28;20032;-79
2020/12/30 02:18:14;;;;;;;10.27;6.15;;;;;;;;;;5057689;28;20036;-80
2020/12/30 02:20:40;;;;;;;10.88;6.07;;;;;;;;;;5057657;28;20028;-79
2020/12/30 02:23:08;;;;;;;9.90;6.05;;;;;;;;;;5057708;28;20422;-79
2020/12/30 02:25:34;;;;;;;12.23;7.15;;;;;;;;;;5056820;28;20090;-80
2020/12/30 02:28:01;;;;;;;9.63;5.88;;;;;;;;;;5056809;28;20039;-80
2020/12/30 02:30:27;;;;;;;11.25;7.25;;;;;;;;;;5057773;28;20025;-79
2020/12/30 02:32:53;;;;;;;12.27;6.75;;;;;;;;;;5057456;28;20099;-79
2020/12/30 02:35:23;;;;;;;9.60;6.53;;;;;;;;;;5056464;28;20025;-79
2020/12/30 02:37:49;;;;;;;10.35;7.10;;;;;;;;;;5057375;28;20017;-79
2020/12/30 02:40:15;;;;;;;9.43;6.45;;;;;;;;;;5057299;28;20025;-79
2020/12/30 02:42:41;;;;;;;10.35;7.13;;;;;;;;;;5057396;28;20017;-79
2020/12/30 02:45:08;;;;;;;8.25;6.38;;;;;;;;;;5056489;28;20037;-78
2020/12/30 02:47:34;;;;;;;9.20;6.72;;;;;;;;;;5057416;28;20017;-79
2020/12/30 02:50:01;;;;;;;10.43;6.35;;;;;;;;;;5057279;28;20025;-79
2020/12/30 02:52:27;;;;;;;10.52;7.07;;;;;;;;;;5057210;28;20021;-79
2020/12/30 02:54:53;;;;;;;12.23;7.20;;;;;;;;;;5057006;28;20056;-79
2020/12/30 02:57:19;;;;;;;11.95;6.97;;;;;;;;;;5056944;28;20350;-79
2020/12/30 02:59:46;;;;;;;11.05;7.22;;;;;;;;;;5057239;28;20013;-79
2020/12/30 03:02:12;;;;;;;8.63;6.70;;;;;;;;;;5056909;28;20056;-79
2020/12/30 03:04:38;;;;;;;10.95;7.10;;;;;;;;;;5057094;28;20115;-79
2020/12/30 03:07:04;;;;;;;10.18;6.40;;;;;;;;;;5057122;28;20032;-78
2020/12/30 03:09:31;;;;;;;9.38;6.38;;;;;;;;;;5056866;28;20029;-79
2020/12/30 03:11:57;;;;;;;9.95;6.70;;;;;;;;;;5057060;28;20021;-78
2020/12/30 03:14:23;;;;;;;9.88;6.47;;;;;;;;;;5056830;28;20354;-79
2020/12/30 03:16:49;;;;;;;10.15;6.35;;;;;;;;;;5057002;28;20407;-79
2020/12/30 03:19:15;;;;;;;13.60;6.15;;;;;;;;;;5056845;28;20115;-79
2020/12/30 03:21:41;;;;;;;12.23;6.97;;;;;;;;;;5056782;28;20307;-79
2020/12/30 03:24:07;;;;;;;11.38;7.05;;;;;;;;;;5056800;28;20464;-80
2020/12/30 03:26:35;;;;;;;13.70;7.50;;;;;;;;;;5056716;28;20418;-80
2020/12/30 03:29:01;;;;;;;14.18;8.15;;;;;;;;;;5057143;28;20052;-80
2020/12/30 03:31:28;;;;;;;14.75;8.60;;;;;;;;;;5055700;28;20021;-80
2020/12/30 03:33:54;;;;;;;17.77;8.82;;;;;;;;;;5056911;28;20033;-79
2020/12/30 03:36:20;;;;;;;16.55;9.95;;;;;;;;;;5058727;28;20025;-79
2020/12/30 03:38:46;;;;;;;17.88;9.23;;;;;;;;;;5060572;28;20096;-80
2020/12/30 03:41:12;;;;;;;13.98;9.35;;;;;;;;;;5060650;28;20025;-79
2020/12/30 03:43:38;;;;;;;11.75;7.78;;;;;;;;;;5060520;28;20017;-80
2020/12/30 03:46:04;;;;;;;12.25;6.85;;;;;;;;;;5060663;28;20029;-79
2020/12/30 03:48:30;;;;;;;12.60;7.00;;;;;;;;;;5060621;28;20025;-80
2020/12/30 03:50:56;;;;;;;10.23;6.75;;;;;;;;;;5060429;28;20021;-80
2020/12/30 03:53:22;;;;;;;11.20;6.70;;;;;;;;;;5060504;28;20029;-80
2020/12/30 03:55:49;;;;;;;9.73;6.45;;;;;;;;;;5059332;28;20033;-80
2020/12/30 03:58:15;;;;;;;12.65;6.47;;;;;;;;;;5059348;28;20307;-79
2020/12/30 04:00:41;;;;;;;12.68;7.05;;;;;;;;;;5059378;28;20415;-79
2020/12/30 04:03:07;;;;;;;10.93;6.95;;;;;;;;;;5059124;28;20045;-79
2020/12/30 04:05:33;;;;;;;10.88;7.22;;;;;;;;;;5060308;28;20468;-79
2020/12/30 04:07:59;;;;;;;10.27;6.40;;;;;;;;;;5060311;28;20032;-78
2020/12/30 04:10:25;;;;;;;12.20;6.63;;;;;;;;;;5060183;28;20442;-79
2020/12/30 04:12:51;;;;;;;12.23;5.90;;;;;;;;;;5059038;28;20548;-79
2020/12/30 04:15:17;;;;;;;16.35;7.05;;;;;;;;;;5060373;28;20033;-79
2020/12/30 04:17:43;;;;;;;11.20;6.72;;;;;;;;;;5060287;28;20104;-79
2020/12/30 04:20:09;;;;;;;11.15;6.45;;;;;;;;;;5059182;28;20102;-79
2020/12/30 04:22:35;;;;;;;12.32;6.55;;;;;;;;;;5059878;28;20021;-79
2020/12/30 04:25:01;;;;;;;12.13;6.05;;;;;;;;;;5058858;28;20032;-79
2020/12/30 04:27:27;;;;;;;9.55;6.03;;;;;;;;;;5058963;28;20059;-79
2020/12/30 04:29:53;;;;;;;12.60;6.43;;;;;;;;;;5060118;28;20067;-79
2020/12/30 04:32:20;;;;;;;10.57;6.00;;;;;;;;;;5059900;28;20025;-79
2020/12/30 04:34:46;;;;;;;9.00;5.63;;;;;;;;;;5059613;28;20056;-78
2020/12/30 04:37:15;;;;;;;10.77;5.95;;;;;;;;;;5059853;28;20318;-78
2020/12/30 04:39:41;;;;;;;18.92;8.77;;;;;;;;;;5059900;28;20315;-78
2020/12/30 04:42:08;;;;;;;12.68;5.60;;;;;;;;;;5059471;28;20013;-78
2020/12/30 04:44:35;;;;;;;15.23;6.32;;;;;;;;;;5059393;28;20032;-78
2020/12/30 04:47:02;;;;;;;12.38;5.95;;;;;;;;;;5058910;28;20032;-78
2020/12/30 04:49:29;;;;;;;16.55;6.78;;;;;;;;;;5059198;28;20100;-78
2020/12/30 04:51:55;;;;;;;19.23;7.03;;;;;;;;;;5059373;28;20025;-78
2020/12/30 04:54:22;;;;;;;17.20;6.95;;;;;;;;;;5059145;28;20099;-78
2020/12/30 04:57:01;;;;;;;13.45;5.45;;;;;;;;;;5059284;28;20020;-78
2020/12/30 04:59:34;;;;;;;13.65;7.38;;;;;;;;;;5059435;28;20025;-79
2020/12/30 05:02:03;;;;;;;19.80;7.07;;;;;;;;;;5058642;28;20045;-79
2020/12/30 05:04:29;;;;;;;13.13;6.32;;;;;;;;;;5059185;28;20033;-79
2020/12/30 05:06:58;;;;;;;16.65;6.93;;;;;;;;;;5059078;28;20151;-79
2020/12/30 05:09:24;;;;;;;18.48;7.22;;;;;;;;;;5057952;28;20025;-78
2020/12/30 05:11:50;;;;;;;10.27;5.47;;;;;;;;;;5059110;28;20115;-79
2020/12/30 05:14:16;;;;;;;12.75;5.78;;;;;;;;;;5059044;28;20025;-78
2020/12/30 05:16:42;;;;;;;8.73;5.15;;;;;;;;;;5059146;28;20021;-78
2020/12/30 05:19:08;;;;;;;10.45;5.35;;;;;;;;;;5058896;28;20049;-79
2020/12/30 05:21:34;;;;;;;9.43;5.90;;;;;;;;;;5058865;28;20020;-78
2020/12/30 05:24:02;;;;;;;12.13;6.15;;;;;;;;;;5057742;28;20028;-78
2020/12/30 05:26:28;;;;;;;11.05;5.65;;;;;;;;;;5058687;28;20055;-78
2020/12/30 05:28:55;;;;;;;9.63;5.30;;;;;;;;;;5058899;28;20040;-78
2020/12/30 05:31:21;;;;;;;9.80;4.82;;;;;;;;;;5058601;28;20024;-79
2020/12/30 05:33:47;;;;;;;10.98;5.40;;;;;;;;;;5058668;28;20032;-79
2020/12/30 05:36:14;;;;;;;13.02;5.90;;;;;;;;;;5057826;28;20465;-78
2020/12/30 05:38:40;;;;;;;8.93;5.22;;;;;;;;;;5057614;28;20033;-77
2020/12/30 05:41:17;;;;;;;9.85;4.40;;;;;;;;;;5058358;28;20327;-78
2020/12/30 05:43:43;;;;;;;14.00;6.20;;;;;;;;;;5058686;28;20040;-78
2020/12/30 05:46:09;;;;;;;9.25;5.95;;;;;;;;;;5058527;28;20100;-78
2020/12/30 05:48:35;;;;;;;17.50;7.45;;;;;;;;;;5057360;28;20071;-78
2020/12/30 05:51:01;;;;;;;26.80;10.30;;;;;;;;;;5058228;28;20029;-79
2020/12/30 05:53:27;;;;;;;17.15;7.85;;;;;;;;;;5058253;28;20304;-79
2020/12/30 05:56:07;;;;;;;18.40;7.05;;;;;;;;;;5057730;28;20029;-78
2020/12/30 05:58:36;;;;;;;18.17;8.13;;;;;;;;;;5057225;28;20021;-79
2020/12/30 06:01:22;;;;;;;17.20;9.15;;;;;;;;;;5058147;28;20415;-79
2020/12/30 06:03:48;;;;;;;12.95;7.32;;;;;;;;;;5058086;28;20144;-79
2020/12/30 06:06:19;;;;;;;10.48;5.60;;;;;;;;;;5058269;28;20040;-79
2020/12/30 06:08:45;;;;;;;14.35;8.10;;;;;;;;;;5057980;28;20029;-79
2020/12/30 06:11:12;;;;;;;14.98;8.95;;;;;;;;;;5056763;28;20041;-79
2020/12/30 06:13:39;;;;;;;29.95;11.70;;;;;;;;;;5057935;28;20055;-79
2020/12/30 06:16:06;;;;;;;38.65;15.00;;;;;;;;;;5040311;28;20021;-79
2020/12/30 06:18:37;;;;;;;35.67;14.02;;;;;;;;;;5057642;28;20032;-79
2020/12/30 06:21:04;;;;;;;23.73;10.32;;;;;;;;;;5056668;28;20031;-79
2020/12/30 06:23:34;;;;;;;53.92;25.15;;;;;;;;;;5057872;28;20137;-79
2020/12/30 06:26:03;;;;;;;34.42;18.02;;;;;;;;;;5057491;28;20035;-79
2020/12/30 06:28:32;;;;;;;51.88;23.40;;;;;;;;;;5057532;28;20044;-79
2020/12/30 06:31:01;;;;;;;46.13;22.10;;;;;;;;;;5057598;28;20094;-79
2020/12/30 06:33:27;;;;;;;55.08;25.45;;;;;;;;;;5057320;28;20032;-79
2020/12/30 06:35:54;;;;;;;35.95;20.65;;;;;;;;;;5057453;28;20284;-79
2020/12/30 06:38:22;;;;;;;27.17;17.65;;;;;;;;;;5056512;28;20049;-79
2020/12/30 06:40:53;;;;;;;31.23;20.00;;;;;;;;;;5057341;28;20032;-79
2020/12/30 06:43:38;;;;;;;19.35;12.65;;;;;;;;;;5056385;28;20032;-79
2020/12/30 06:46:04;;;;;;;19.80;12.32;;;;;;;;;;5057259;28;20063;-79
2020/12/30 06:48:30;;;;;;;23.20;15.93;;;;;;;;;;5057513;28;20028;-79
2020/12/30 06:51:15;;;;;;;15.63;9.10;;;;;;;;;;5057306;28;20490;-79
2020/12/30 06:53:48;;;;;;;15.68;8.40;;;;;;;;;;5056076;28;20033;-79
2020/12/30 06:56:14;;;;;;;15.52;8.95;;;;;;;;;;5057062;28;20024;-79
2020/12/30 06:58:44;;;;;;;13.38;8.00;;;;;;;;;;5057057;28;20117;-79
2020/12/30 07:01:18;;;;;;;16.45;8.88;;;;;;;;;;5055881;28;20025;-79
2020/12/30 07:03:44;;;;;;;17.95;9.13;;;;;;;;;;5057179;28;20056;-79
2020/12/30 07:06:30;;;;;;;18.23;9.57;;;;;;;;;;5057176;28;20024;-79
2020/12/30 07:09:00;;;;;;;26.67;13.02;;;;;;;;;;5057068;28;20044;-79
2020/12/30 07:11:39;;;;;;;28.20;13.35;;;;;;;;;;5056392;28;20033;-79
2020/12/30 07:14:06;;;;;;;36.47;23.38;;;;;;;;;;5055756;28;20093;-79
2020/12/30 07:16:35;;;;;;;57.55;34.90;;;;;;;;;;5057065;28;20322;-79
2020/12/30 07:19:01;;;;;;;45.65;28.08;;;;;;;;;;5055914;28;20017;-79
2020/12/30 07:21:27;;;;;;;28.02;18.83;;;;;;;;;;5056938;28;20028;-78
2020/12/30 07:23:54;;;;;;;20.00;11.75;;;;;;;;;;5056803;28;20090;-79
2020/12/30 07:26:21;;;;;;;18.33;10.88;;;;;;;;;;5056760;28;20029;-79
2020/12/30 07:28:48;;;;;;;25.90;13.63;;;;;;;;;;5056970;28;20315;-79
2020/12/30 07:31:16;;;;;;;25.45;12.95;;;;;;;;;;5056840;28;20032;-79
2020/12/30 07:33:42;;;;;;;28.63;14.48;;;;;;;;;;5056561;28;20033;-79
2020/12/30 07:36:09;;;;;;;31.08;15.77;;;;;;;;;;5056750;28;20028;-79
2020/12/30 07:38:36;;;;;;;29.58;13.93;;;;;;;;;;5056758;28;20036;-78
2020/12/30 07:41:06;;;;;;;23.10;12.35;;;;;;;;;;5056639;28;20040;-79
2020/12/30 07:43:45;;;;;;;30.63;11.95;;;;;;;;;;5056632;28;20031;-78
2020/12/30 07:46:29;;;;;;;21.50;12.98;;;;;;;;;;5056656;28;20053;-79
2020/12/30 07:49:06;;;;;;;59.75;36.28;;;;;;;;;;5056493;28;20025;-78
2020/12/30 07:51:32;;;;;;;194.98;95.20;;;;;;;;;;5056505;28;20307;-79
2020/12/30 07:53:58;;;;;;;90.97;53.08;;;;;;;;;;5056655;28;20053;-78
2020/12/30 07:56:24;;;;;;;41.70;25.52;;;;;;;;;;5056535;28;20025;-79
2020/12/30 07:58:50;;;;;;;33.53;22.38;;;;;;;;;;5056603;28;20059;-78
2020/12/30 08:01:18;;;;;;;34.80;22.63;;;;;;;;;;5056170;28;20313;-79
2020/12/30 08:03:44;;;;;;;37.92;20.15;;;;;;;;;;5056505;28;20330;-80
2020/12/30 08:06:10;;;;;;;46.88;23.08;;;;;;;;;;5055412;28;20029;-78
2020/12/30 08:08:43;;;;;;;52.05;25.45;;;;;;;;;;5056703;28;20059;-78
2020/12/30 08:11:09;;;;;;;77.80;34.15;;;;;;;;;;5055427;28;20418;-80
2020/12/30 08:13:38;;;;;;;62.17;28.35;;;;;;;;;;5056495;28;20044;-80
2020/12/30 08:16:04;;;;;;;46.60;22.95;;;;;;;;;;5056606;28;20032;-79
2020/12/30 08:18:31;;;;;;;29.58;18.00;;;;;;;;;;5056326;28;20091;-79
2020/12/30 08:20:58;;;;;;;30.13;15.77;;;;;;;;;;5055265;28;20021;-79
2020/12/30 08:23:24;;;;;;;31.63;18.08;;;;;;;;;;5058349;28;20033;-79
2020/12/30 08:25:50;;;;;;;28.50;12.75;;;;;;;;;;5058916;28;20029;-79
2020/12/30 08:28:16;;;;;;;42.00;19.92;;;;;;;;;;5059793;28;20029;-79
2020/12/30 08:30:43;;;;;;;55.03;26.30;;;;;;;;;;5059662;28;20040;-79
2020/12/30 08:33:13;;;;;;;73.43;31.42;;;;;;;;;;5060002;28;20033;-79
2020/12/30 08:35:53;;;;;;;67.85;29.38;;;;;;;;;;5059747;28;20033;-79
2020/12/30 08:38:19;;;;;;;120.55;46.47;;;;;;;;;;5059975;28;20032;-79
2020/12/30 08:40:49;;;;;;;120.68;52.15;;;;;;;;;;5059577;28;20025;-80
2020/12/30 08:43:22;;;;;;;209.10;75.97;;;;;;;;;;5059707;28;20367;-79
2020/12/30 08:45:48;;;;;;;149.15;73.80;;;;;;;;;;5059704;28;20342;-79
2020/12/30 08:48:15;;;;;;;113.85;54.95;;;;;;;;;;5059428;28;20035;-79
2020/12/30 08:50:41;;;;;;;72.60;34.40;;;;;;;;;;5059339;28;20319;-79
2020/12/30 08:53:07;;;;;;;58.50;27.10;;;;;;;;;;5058098;28;20036;-79
2020/12/30 08:55:34;;;;;;;55.55;26.90;;;;;;;;;;5059237;28;20087;-79
2020/12/30 08:58:00;;;;;;;63.25;27.17;;;;;;;;;;5059367;28;20079;-79
2020/12/30 09:00:27;;;;;;;52.67;22.95;;;;;;;;;;5059434;28;20395;-79
2020/12/30 09:02:54;;;;;;;49.83;21.92;;;;;;;;;;5058933;28;20052;-79
2020/12/30 09:05:30;;;;;;;46.30;20.60;;;;;;;;;;5059416;28;20091;-79
2020/12/30 09:08:15;;;;;;;55.58;21.60;;;;;;;;;;5059272;28;20025;-79
2020/12/30 09:10:42;;;;;;;99.13;37.75;;;;;;;;;;5059107;28;20405;-79
2020/12/30 09:13:18;;;;;;;43.60;20.70;;;;;;;;;;5058878;28;20028;-79
2020/12/30 09:15:54;;;;;;;37.35;18.95;;;;;;;;;;5059238;28;20083;-79
2020/12/30 09:18:20;;;;;;;26.05;13.57;;;;;;;;;;5058848;28;20021;-79
2020/12/30 09:20:46;;;;;;;31.10;15.10;;;;;;;;;;5058834;28;20025;-79
2020/12/30 09:23:12;;;;;;;116.00;48.22;;;;;;;;;;5058919;28;20114;-79
2020/12/30 09:25:40;;;;;;;56.13;31.58;;;;;;;;;;5058627;28;20024;-79
2020/12/30 09:28:15;;;;;;;26.77;16.17;;;;;;;;;;5058942;28;20033;-79
2020/12/30 09:30:41;;;;;;;33.67;18.17;;;;;;;;;;5057633;28;20033;-79
2020/12/30 09:33:12;;;;;;;35.30;15.88;;;;;;;;;;5057200;28;20319;-79
2020/12/30 09:35:38;;;;;;;22.77;12.00;;;;;;;;;;5058353;28;20066;-79
2020/12/30 09:38:04;;;;;;;24.30;10.52;;;;;;;;;;5058713;28;20035;-78
2020/12/30 09:40:30;;;;;;;21.88;10.23;;;;;;;;;;5058423;28;20013;-77
2020/12/30 09:43:28;;;;;;;22.00;9.43;;;;;;;;;;5058716;28;20308;-78
2020/12/30 09:46:04;;;;;;;20.88;10.95;;;;;;;;;;5056612;28;20342;-78
2020/12/30 09:48:30;;;;;;;39.47;18.92;;;;;;;;;;5056616;28;20033;-78
2020/12/30 09:50:56;;;;;;;41.60;19.30;;;;;;;;;;5054432;28;20326;-78
2020/12/30 09:53:23;;;;;;;43.22;18.80;;;;;;;;;;5037507;28;20059;-77
2020/12/30 09:55:52;;;;;;;38.95;14.30;;;;;;;;;;5039590;28;20031;-78
2020/12/30 09:58:19;;;;;;;32.35;13.25;;;;;;;;;;5056497;28;20461;-78
2020/12/30 10:00:45;;;;;;;24.02;10.48;;;;;;;;;;5056304;28;20120;-78
2020/12/30 10:03:11;;;;;;;25.63;10.43;;;;;;;;;;5055982;28;20037;-77
2020/12/30 10:05:37;;;;;;;30.02;11.85;;;;;;;;;;5056074;28;20025;-77
2020/12/30 10:08:03;;;;;;;32.88;14.65;;;;;;;;;;5056073;28;20032;-78
2020/12/30 10:10:31;;;;;;;32.05;13.15;;;;;;;;;;5056139;28;20037;-78
2020/12/30 10:12:57;;;;;;;29.88;12.43;;;;;;;;;;5056086;28;20032;-77
2020/12/30 10:15:23;;;;;;;26.85;13.18;;;;;;;;;;5055966;28;20357;-78
2020/12/30 10:17:49;;;;;;;37.63;15.95;;;;;;;;;;5056071;28;20035;-77
2020/12/30 10:20:15;;;;;;;46.88;19.50;;;;;;;;;;5055719;28;20052;-78
2020/12/30 10:22:45;;;;;;;52.60;22.27;;;;;;;;;;5037851;28;20029;-77
2020/12/30 10:25:12;;;;;;;38.92;18.25;;;;;;;;;;5037843;28;20022;-78
2020/12/30 10:27:44;;;;;;;37.13;16.88;;;;;;;;;;5037852;28;20347;-78
2020/12/30 10:30:10;;;;;;;33.00;13.83;;;;;;;;;;5037838;28;20048;-78
2020/12/30 10:32:37;;;;;;;28.15;13.07;;;;;;;;;;5037840;28;20316;-77
2020/12/30 10:35:06;;;;;;;21.98;11.85;;;;;;;;;;5036349;28;20040;-77
2020/12/30 10:37:32;;;;;;;28.40;13.35;;;;;;;;;;5037689;28;20017;-78
2020/12/30 10:39:59;;;;;;;35.53;15.90;;;;;;;;;;5037735;28;20033;-77
2020/12/30 10:42:25;;;;;;;44.92;21.55;;;;;;;;;;5037565;28;20021;-78
2020/12/30 10:44:51;;;;;;;60.75;25.20;;;;;;;;;;5037128;28;20105;-78
2020/12/30 10:47:17;;;;;;;70.97;29.95;;;;;;;;;;5037170;28;20022;-78
2020/12/30 10:49:43;;;;;;;62.53;30.20;;;;;;;;;;5037222;28;20060;-78
2020/12/30 10:52:09;;;;;;;59.78;27.98;;;;;;;;;;5037083;28;20033;-77
2020/12/30 10:54:42;;;;;;;45.78;22.98;;;;;;;;;;5037355;28;20128;-78
2020/12/30 10:57:08;;;;;;;52.72;29.45;;;;;;;;;;5037131;28;20109;-77
2020/12/30 10:59:34;;;;;;;35.55;18.67;;;;;;;;;;5037393;28;20029;-77
2020/12/30 11:02:01;;;;;;;35.47;17.73;;;;;;;;;;5037019;28;20049;-78
2020/12/30 11:04:27;;;;;;;39.30;21.60;;;;;;;;;;5037104;28;20101;-78
2020/12/30 11:06:54;;;;;;;47.20;28.23;;;;;;;;;;5035782;28;20071;-78
2020/12/30 11:09:20;;;;;;;46.67;24.38;;;;;;;;;;5037300;28;20331;-78
2020/12/30 11:11:48;;;;;;;45.40;25.42;;;;;;;;;;5037014;28;20030;-77
2020/12/30 11:14:14;;;;;;;57.97;35.45;;;;;;;;;;5036906;28;20060;-77
2020/12/30 11:16:40;;;;;;;48.78;26.83;;;;;;;;;;5035671;28;20048;-78
2020/12/30 11:19:06;;;;;;;56.97;32.33;;;;;;;;;;5036954;28;20014;-77
2020/12/30 11:21:33;;;;;;;70.50;41.83;;;;;;;;;;5036911;28;20074;-77
2020/12/30 11:23:59;;;;;;;53.55;30.70;;;;;;;;;;5036935;28;20045;-77
2020/12/30 11:26:25;;;;;;;51.83;27.90;;;;;;;;;;5036937;28;20026;-77
2020/12/30 11:28:51;;;;;;;51.17;31.10;;;;;;;;;;5038538;28;20033;-78
2020/12/30 11:31:17;;;;;;;46.72;25.45;;;;;;;;;;5045710;28;20128;-77
2020/12/30 11:33:43;;;;;;;54.03;29.67;;;;;;;;;;5044804;28;20026;-77
2020/12/30 11:36:09;;;;;;;47.67;28.85;;;;;;;;;;5044662;28;20017;-78
2020/12/30 11:38:35;;;;;;;52.00;30.77;;;;;;;;;;5046127;28;20518;-77
2020/12/30 11:41:01;;;;;;;69.72;38.42;;;;;;;;;;5044784;28;20121;-78
2020/12/30 11:43:28;;;;;;;47.75;26.63;;;;;;;;;;5045463;28;20087;-77
2020/12/30 11:45:54;;;;;;;51.60;28.02;;;;;;;;;;5036702;28;20436;-78
2020/12/30 11:48:21;;;;;;;46.00;26.95;;;;;;;;;;5036743;28;20477;-78
2020/12/30 11:50:47;;;;;;;53.63;27.35;;;;;;;;;;5019451;28;20038;-79
2020/12/30 11:53:13;;;;;;;58.35;34.28;;;;;;;;;;5036720;28;20045;-77
2020/12/30 11:55:39;;;;;;;77.78;45.55;;;;;;;;;;5036791;28;20075;-77
2020/12/30 11:58:05;;;;;;;70.05;41.50;;;;;;;;;;5039892;28;20048;-78
2020/12/30 12:00:32;;;;;;;76.70;45.78;;;;;;;;;;5039655;28;20327;-77
2020/12/30 12:02:58;;;;;;;46.28;26.95;;;;;;;;;;5040443;28;20431;-77
2020/12/30 12:05:25;;;;;;;47.28;26.77;;;;;;;;;;5040239;28;20108;-77
2020/12/30 12:07:51;;;;;;;43.28;24.13;;;;;;;;;;5040480;28;20029;-77
2020/12/30 12:10:17;;;;;;;41.42;22.80;;;;;;;;;;5041216;28;20100;-77
2020/12/30 12:12:43;;;;;;;45.50;24.52;;;;;;;;;;5059919;28;20025;-77
2020/12/30 12:15:09;;;;;;;41.45;24.80;;;;;;;;;;5060169;28;20349;-77
2020/12/30 12:17:35;;;;;;;53.72;23.98;;;;;;;;;;5060326;28;20383;-77
2020/12/30 12:20:01;;;;;;;55.45;26.50;;;;;;;;;;5060048;28;20013;-78
2020/12/30 12:22:29;;;;;;;52.35;23.80;;;;;;;;;;5059028;28;20326;-78
2020/12/30 12:24:55;;;;;;;47.83;21.75;;;;;;;;;;5058923;28;20082;-78
2020/12/30 12:27:21;;;;;;;48.88;24.38;;;;;;;;;;5059919;28;20036;-77
2020/12/30 12:29:48;;;;;;;45.67;23.60;;;;;;;;;;5059964;28;20498;-78
2020/12/30 12:32:15;;;;;;;56.90;28.73;;;;;;;;;;5060093;28;20029;-77
2020/12/30 12:34:42;;;;;;;62.35;32.55;;;;;;;;;;5059742;28;20101;-78
2020/12/30 12:37:09;;;;;;;74.80;30.95;;;;;;;;;;5059930;28;20017;-77
2020/12/30 12:39:38;;;;;;;171.27;73.32;;;;;;;;;;5059601;28;20017;-78
2020/12/30 12:42:04;;;;;;;205.98;83.15;;;;;;;;;;5059600;28;20025;-78
2020/12/30 12:44:31;;;;;;;167.20;81.57;;;;;;;;;;5059695;28;20064;-78
2020/12/30 12:46:57;;;;;;;217.32;119.28;;;;;;;;;;5059531;28;20025;-77
2020/12/30 12:49:23;;;;;;;424.50;243.45;;;;;;;;;;5059489;28;20032;-77
2020/12/30 12:51:50;;;;;;;462.75;283.38;;;;;;;;;;5058167;28;20029;-78
2020/12/30 12:54:16;;;;;;;319.65;179.55;;;;;;;;;;5059517;28;20361;-77
2020/12/30 12:56:42;;;;;;;321.63;176.02;;;;;;;;;;5059563;28;20025;-77
2020/12/30 12:59:09;;;;;;;256.90;143.88;;;;;;;;;;5059325;28;20140;-78
2020/12/30 13:01:35;;;;;;;139.77;81.15;;;;;;;;;;5057974;28;20025;-77
2020/12/30 13:04:01;;;;;;;154.57;84.25;;;;;;;;;;5058119;28;20151;-77
2020/12/30 13:06:28;;;;;;;183.60;100.05;;;;;;;;;;5059212;28;20412;-77
2020/12/30 13:08:56;;;;;;;183.98;99.97;;;;;;;;;;5058342;28;20029;-77
2020/12/30 13:11:22;;;;;;;257.25;132.25;;;;;;;;;;5058985;28;20052;-77
2020/12/30 13:13:48;;;;;;;296.55;149.10;;;;;;;;;;5058949;28;20375;-77
2020/12/30 13:16:14;;;;;;;297.23;161.95;;;;;;;;;;5057933;28;20033;-77
2020/12/30 13:18:40;;;;;;;262.33;144.85;;;;;;;;;;5057826;28;20037;-77
2020/12/30 13:21:07;;;;;;;206.88;116.47;;;;;;;;;;5058859;28;20051;-77
2020/12/30 13:23:33;;;;;;;194.93;112.88;;;;;;;;;;5059060;28;20025;-77
2020/12/30 13:25:59;;;;;;;164.13;91.30;;;;;;;;;;5058509;28;20063;-77
2020/12/30 13:28:25;;;;;;;151.82;86.85;;;;;;;;;;5058692;28;20021;-77
2020/12/30 13:30:51;;;;;;;131.85;74.22;;;;;;;;;;5058713;28;20029;-76
2020/12/30 13:33:18;;;;;;;59.17;34.50;;;;;;;;;;5058497;28;20024;-77
2020/12/30 13:35:50;;;;;;;82.15;46.08;;;;;;;;;;5058692;28;20041;-77
2020/12/30 13:38:17;;;;;;;78.53;45.00;;;;;;;;;;5058646;28;20112;-77
2020/12/30 13:40:44;;;;;;;113.72;63.97;;;;;;;;;;5058654;28;20025;-77
2020/12/30 13:43:10;;;;;;;79.65;45.30;;;;;;;;;;5058464;28;20027;-77
2020/12/30 13:45:36;;;;;;;93.47;50.97;;;;;;;;;;5058547;28;20143;-77
2020/12/30 13:48:02;;;;;;;73.25;44.15;;;;;;;;;;5058334;28;20021;-76
2020/12/30 13:50:29;;;;;;;70.88;42.83;;;;;;;;;;5057536;28;20037;-77
2020/12/30 13:52:56;;;;;;;62.03;35.80;;;;;;;;;;5058519;28;20315;-77
2020/12/30 13:55:22;;;;;;;64.60;35.50;;;;;;;;;;5058309;28;20033;-77
2020/12/30 13:57:48;;;;;;;64.72;34.92;;;;;;;;;;5058266;28;20342;-77
2020/12/30 14:00:14;;;;;;;60.13;33.40;;;;;;;;;;5058184;28;20100;-77
2020/12/30 14:02:41;;;;;;;68.43;39.28;;;;;;;;;;5057607;28;20045;-77
2020/12/30 14:05:07;;;;;;;91.25;49.40;;;;;;;;;;5058006;28;20099;-77
2020/12/30 14:07:33;;;;;;;63.53;34.90;;;;;;;;;;5056754;28;20040;-77
2020/12/30 14:09:59;;;;;;;70.68;35.90;;;;;;;;;;5058047;28;20052;-77
2020/12/30 14:12:25;;;;;;;113.97;59.72;;;;;;;;;;5057769;28;20108;-77
2020/12/30 14:14:51;;;;;;;130.98;65.78;;;;;;;;;;5056904;28;20399;-77
2020/12/30 14:17:19;;;;;;;87.65;48.97;;;;;;;;;;5057770;28;20029;-77
2020/12/30 14:19:46;;;;;;;97.75;58.28;;;;;;;;;;5057122;28;20021;-77
2020/12/30 14:22:12;;;;;;;68.78;39.00;;;;;;;;;;5057393;28;20108;-77